Check out our new BloomSky Weather System.

Active alerts


No alerts


Thunder radar  blitzortung!


Rain radar more information rain snow radar


Visit our other weather sites:

Template documentation
and downloads

And another site



Weather Underground History page Text

Daily Summary for December 8, 2017 Units:  English    Metric   Both
« Previous Day
Next Day »
Daily Weekly Monthly Yearly Custom
  High: Low: Average:
Temperature: 43.3 °F 30.2 °F 34.5 °F
Dew Point: 33.1 °F 26.8 °F 30.5 °F
Humidity: 98 % 56 % 87 %
Wind Speed: 6.0 mph 0.0 mph 1.1 mph
Wind Gust: 13.0 mph - -
Wind:- - WNW
Pressure: 30.34 in 30.14 in -
Precipitation: 0.06 in    
Historical Graphs
 
 
Tabular Data for December 8, 2017
Time Temperature Dew Point Pressure Wind Wind Speed Wind Gust Humidity Rainfall Rate (Hourly)
00:00 32.0 °F 31.3 °F 30.34 in WNW 3.0 mph 13.0 mph 97 % 0.00 in
00:05 32.0 °F 31.3 °F 30.34 in WNW 6.0 mph 10.0 mph 97 % 0.00 in
00:10 31.8 °F 31.1 °F 30.33 in NNW 5.0 mph 10.0 mph 97 % 0.00 in
00:25 31.8 °F 31.1 °F 30.33 in NNW 5.0 mph 10.0 mph 97 % 0.00 in
00:30 31.6 °F 30.9 °F 30.33 in NW 2.0 mph 10.0 mph 97 % 0.00 in
00:35 31.6 °F 30.9 °F 30.33 in NW 2.0 mph 10.0 mph 97 % 0.00 in
00:41 31.6 °F 30.9 °F 30.34 in NW 1.0 mph 7.0 mph 97 % 0.00 in
00:46 31.6 °F 30.9 °F 30.34 in North 1.0 mph 6.0 mph 97 % 0.00 in
00:51 31.6 °F 30.9 °F 30.34 in NNW 2.0 mph 6.0 mph 97 % 0.00 in
01:01 31.6 °F 30.9 °F 30.32 in NNW 2.0 mph 7.0 mph 97 % 0.00 in
01:06 31.5 °F 30.7 °F 30.33 in NNW 2.0 mph 7.0 mph 97 % 0.00 in
01:11 31.5 °F 30.7 °F 30.32 in North 6.0 mph 7.0 mph 97 % 0.00 in
01:16 31.5 °F 30.7 °F 30.31 in NW 3.0 mph 7.0 mph 97 % 0.00 in
01:21 31.5 °F 30.9 °F 30.31 in NNW 5.0 mph 7.0 mph 98 % 0.00 in
01:36 31.5 °F 30.9 °F 30.30 in Calm   5.0 mph 98 % 0.00 in
01:41 31.5 °F 30.9 °F 30.30 in Calm   5.0 mph 98 % 0.00 in
01:46 31.5 °F 30.9 °F 30.31 in North 1.0 mph 5.0 mph 98 % 0.00 in
01:51 31.5 °F 30.9 °F 30.30 in Calm   5.0 mph 98 % 0.00 in
01:56 31.5 °F 30.9 °F 30.30 in Calm   5.0 mph 98 % 0.00 in
02:01 31.5 °F 30.9 °F 30.30 in Calm   4.0 mph 98 % 0.00 in
02:06 31.5 °F 30.9 °F 30.29 in NW 1.0 mph 4.0 mph 98 % 0.00 in
02:11 31.5 °F 30.9 °F 30.30 in Calm   2.0 mph 98 % 0.00 in
02:29 31.6 °F 31.1 °F 30.30 in NNW 4.0 mph 6.0 mph 98 % 0.00 in
02:34 31.5 °F 30.9 °F 30.30 in NW 1.0 mph 8.0 mph 98 % 0.00 in
02:39 31.5 °F 30.9 °F 30.30 in NW 1.0 mph 8.0 mph 98 % 0.00 in
02:44 31.5 °F 30.9 °F 30.31 in NNE 3.0 mph 8.0 mph 98 % 0.00 in
02:54 31.3 °F 30.7 °F 30.30 in Calm   8.0 mph 98 % 0.00 in
02:59 31.3 °F 30.7 °F 30.30 in NW 1.0 mph 8.0 mph 98 % 0.00 in
03:00 31.3 °F 30.7 °F 30.30 in Calm   8.0 mph 98 % 0.00 in
03:05 31.3 °F 30.7 °F 30.30 in NNW 2.0 mph 6.0 mph 98 % 0.00 in
03:10 31.3 °F 30.7 °F 30.30 in Calm   6.0 mph 98 % 0.00 in
03:15 31.3 °F 30.7 °F 30.30 in Calm   4.0 mph 98 % 0.00 in
03:58 30.9 °F 30.4 °F 30.27 in Calm   1.0 mph 98 % 0.00 in
04:03 30.9 °F 30.4 °F 30.27 in Calm   1.0 mph 98 % 0.00 in
04:08 30.9 °F 30.4 °F 30.27 in Calm   1.0 mph 98 % 0.00 in
04:13 30.9 °F 30.4 °F 30.27 in Calm   1.0 mph 98 % 0.00 in
04:18 30.9 °F 30.4 °F 30.27 in Calm     98 % 0.00 in
04:28 30.9 °F 30.4 °F 30.27 in Calm     98 % 0.00 in
04:33 30.9 °F 30.4 °F 30.27 in Calm     98 % 0.00 in
04:38 30.9 °F 30.4 °F 30.27 in Calm     98 % 0.00 in
04:43 30.9 °F 30.4 °F 30.26 in Calm     98 % 0.00 in
04:53 31.1 °F 30.6 °F 30.26 in Calm     98 % 0.00 in
05:03 31.3 °F 30.7 °F 30.26 in Calm     98 % 0.00 in
05:08 31.3 °F 30.7 °F 30.25 in Calm     98 % 0.00 in
05:18 31.5 °F 30.9 °F 30.25 in Calm     98 % 0.00 in
05:23 31.5 °F 30.9 °F 30.24 in Calm     98 % 0.00 in
05:33 31.6 °F 31.1 °F 30.24 in Calm   1.0 mph 98 % 0.00 in
05:43 31.8 °F 31.3 °F 30.24 in North 1.0 mph 1.0 mph 98 % 0.00 in
05:48 31.8 °F 31.3 °F 30.25 in Calm   1.0 mph 98 % 0.00 in
05:53 31.8 °F 31.3 °F 30.26 in NW 1.0 mph 1.0 mph 98 % 0.00 in
05:58 32.0 °F 31.5 °F 30.25 in Calm   2.0 mph 98 % 0.00 in
06:03 32.0 °F 31.5 °F 30.25 in NNW 1.0 mph 2.0 mph 98 % 0.00 in
06:09 32.0 °F 31.5 °F 30.25 in Calm   2.0 mph 98 % 0.00 in
06:14 32.0 °F 31.5 °F 30.25 in NNW 1.0 mph 2.0 mph 98 % 0.00 in
06:24 32.2 °F 31.6 °F 30.24 in NNW 1.0 mph 2.0 mph 98 % 0.00 in
06:29 32.2 °F 31.6 °F 30.24 in Calm   2.0 mph 98 % 0.00 in
06:34 32.2 °F 31.6 °F 30.25 in Calm   2.0 mph 98 % 0.00 in
06:39 32.2 °F 31.6 °F 30.26 in Calm   2.0 mph 98 % 0.00 in
06:44 32.2 °F 31.6 °F 30.25 in Calm   2.0 mph 98 % 0.00 in
06:49 32.2 °F 31.6 °F 30.25 in NNW 2.0 mph 2.0 mph 98 % 0.00 in
06:54 32.2 °F 31.6 °F 30.25 in NNW 1.0 mph 2.0 mph 98 % 0.00 in
06:59 32.2 °F 31.6 °F 30.27 in Calm   2.0 mph 98 % 0.00 in
07:08 32.2 °F 31.6 °F 30.27 in NNW 1.0 mph 2.0 mph 98 % 0.00 in
07:13 32.2 °F 31.6 °F 30.26 in NNW 2.0 mph 2.0 mph 98 % 0.00 in
07:23 32.2 °F 31.6 °F 30.26 in WNW 1.0 mph 3.0 mph 98 % 0.00 in
07:38 32.2 °F 31.6 °F 30.27 in North 2.0 mph 3.0 mph 98 % 0.00 in
07:48 32.4 °F 31.8 °F 30.26 in North 1.0 mph 3.0 mph 98 % 0.00 in
07:58 32.4 °F 31.8 °F 30.27 in Calm   4.0 mph 98 % 0.00 in
08:03 32.4 °F 31.8 °F 30.27 in NW 2.0 mph 4.0 mph 98 % 0.00 in
08:08 32.4 °F 31.8 °F 30.27 in NNW 1.0 mph 5.0 mph 98 % 0.00 in
08:13 32.4 °F 31.8 °F 30.27 in NW 3.0 mph 5.0 mph 98 % 0.00 in
08:18 32.4 °F 31.8 °F 30.27 in Calm   5.0 mph 98 % 0.00 in
08:23 32.4 °F 31.8 °F 30.27 in NW 1.0 mph 5.0 mph 98 % 0.00 in
08:28 32.5 °F 32.0 °F 30.28 in Calm   5.0 mph 98 % 0.00 in
08:38 32.7 °F 32.2 °F 30.27 in Calm   4.0 mph 98 % 0.00 in
08:43 32.7 °F 32.2 °F 30.27 in NNW 5.0 mph 5.0 mph 98 % 0.00 in
08:48 32.7 °F 32.0 °F 30.27 in NNW 4.0 mph 5.0 mph 97 % 0.00 in
08:58 32.7 °F 32.0 °F 30.27 in NW 3.0 mph 6.0 mph 97 % 0.00 in
09:03 32.7 °F 32.0 °F 30.27 in NW 1.0 mph 6.0 mph 97 % 0.00 in
09:08 32.7 °F 32.0 °F 30.27 in NNW 1.0 mph 5.0 mph 97 % 0.00 in
09:18 33.1 °F 32.4 °F 30.28 in NNW 1.0 mph 7.0 mph 97 % 0.00 in
09:23 33.1 °F 32.0 °F 30.28 in NNW 2.0 mph 7.0 mph 96 % 0.00 in
09:28 33.1 °F 32.0 °F 30.27 in NNW 2.0 mph 7.0 mph 96 % 0.00 in
09:33 33.3 °F 32.2 °F 30.27 in NNW 1.0 mph 7.0 mph 96 % 0.00 in
09:44 33.4 °F 32.2 °F 30.27 in NNW 4.0 mph 4.0 mph 95 % 0.00 in
09:49 33.4 °F 32.2 °F 30.28 in Calm   4.0 mph 95 % 0.00 in
09:54 33.4 °F 31.8 °F 30.28 in NNW 1.0 mph 5.0 mph 94 % 0.00 in
09:59 33.4 °F 31.8 °F 30.28 in NW 1.0 mph 6.0 mph 94 % 0.00 in
10:04 33.6 °F 31.8 °F 30.27 in NW 4.0 mph 6.0 mph 93 % 0.00 in
10:09 33.6 °F 31.8 °F 30.27 in NW 4.0 mph 6.0 mph 93 % 0.00 in
10:15 33.8 °F 31.6 °F 30.26 in NW 4.0 mph 6.0 mph 92 % 0.00 in
10:25 34.3 °F 32.0 °F 30.26 in Calm   8.0 mph 91 % 0.00 in
10:30 34.3 °F 31.5 °F 30.27 in NW 2.0 mph 6.0 mph 89 % 0.00 in
10:40 34.5 °F 31.3 °F 30.27 in NW 1.0 mph 6.0 mph 88 % 0.00 in
10:50 34.5 °F 30.7 °F 30.25 in NNE 5.0 mph 8.0 mph 86 % 0.00 in
10:51 34.7 °F 30.9 °F 30.25 in NNW 2.0 mph 8.0 mph 86 % 0.00 in
11:01 35.2 °F 30.9 °F 30.25 in NNW 3.0 mph 8.0 mph 84 % 0.00 in
11:06 35.2 °F 30.4 °F 30.25 in WNW 3.0 mph 8.0 mph 82 % 0.00 in
11:11 35.4 °F 30.2 °F 30.25 in NNE 4.0 mph 8.0 mph 81 % 0.00 in
11:16 35.6 °F 30.4 °F 30.24 in NNW 2.0 mph 8.0 mph 81 % 0.00 in
11:21 35.8 °F 29.3 °F 30.26 in NNW 3.0 mph 8.0 mph 77 % 0.00 in
11:26 36.0 °F 30.4 °F 30.26 in NNW 2.0 mph 8.0 mph 80 % 0.00 in
11:31 36.1 °F 30.2 °F 30.25 in NW 2.0 mph 9.0 mph 79 % 0.00 in
11:36 36.3 °F 29.8 °F 30.24 in NW 4.0 mph 9.0 mph 77 % 0.00 in
11:41 36.7 °F 29.1 °F 30.24 in NW 3.0 mph 9.0 mph 74 % 0.00 in
11:43 36.7 °F 29.5 °F 30.24 in NNW 3.0 mph 9.0 mph 75 % 0.00 in
11:48 36.9 °F 29.3 °F 30.23 in NNW 4.0 mph 9.0 mph 74 % 0.00 in
11:53 37.0 °F 29.8 °F 30.23 in NNW 2.0 mph 7.0 mph 75 % 0.01 in
11:58 37.2 °F 29.1 °F 30.24 in Calm   7.0 mph 72 % 0.01 in
12:03 37.2 °F 29.1 °F 30.24 in North 3.0 mph 6.0 mph 72 % 0.01 in
12:08 37.2 °F 28.8 °F 30.24 in NNW 3.0 mph 8.0 mph 71 % 0.01 in
12:13 37.4 °F 29.8 °F 30.24 in West 1.0 mph 8.0 mph 74 % 0.01 in
12:18 37.8 °F 29.8 °F 30.23 in NW 5.0 mph 8.0 mph 73 % 0.02 in
12:23 37.6 °F 29.3 °F 30.22 in Calm   8.0 mph 72 % 0.02 in
12:28 37.6 °F 28.8 °F 30.22 in North 3.0 mph 8.0 mph 70 % 0.02 in
12:33 37.4 °F 29.1 °F 30.22 in NW 2.0 mph 8.0 mph 72 % 0.02 in
12:38 37.6 °F 29.1 °F 30.22 in Calm   7.0 mph 71 % 0.03 in
12:48 37.8 °F 28.9 °F 30.21 in NE 1.0 mph 5.0 mph 70 % 0.03 in
12:53 37.8 °F 28.6 °F 30.22 in Calm   6.0 mph 69 % 0.02 in
13:08 37.9 °F 26.8 °F 30.19 in NNW 2.0 mph 7.0 mph 64 % 0.03 in
13:13 38.5 °F 28.4 °F 30.18 in NW 2.0 mph 7.0 mph 67 % 0.03 in
13:23 39.2 °F 28.8 °F 30.19 in NNW 6.0 mph 6.0 mph 66 % 0.03 in
13:28 39.0 °F 28.2 °F 30.18 in NNW 3.0 mph 6.0 mph 65 % 0.03 in
13:34 39.4 °F 28.9 °F 30.18 in NNW 2.0 mph 6.0 mph 66 % 0.03 in
13:39 39.4 °F 27.5 °F 30.18 in NNW 3.0 mph 6.0 mph 62 % 0.02 in
13:44 39.4 °F 28.6 °F 30.17 in Calm   6.0 mph 65 % 0.02 in
13:49 39.7 °F 28.6 °F 30.17 in Calm   6.0 mph 64 % 0.02 in
13:54 39.4 °F 28.9 °F 30.17 in North 1.0 mph 6.0 mph 66 % 0.03 in
13:59 38.5 °F 28.8 °F 30.16 in WNW 5.0 mph 7.0 mph 68 % 0.02 in
14:04 38.1 °F 29.5 °F 30.16 in NW 3.0 mph 8.0 mph 71 % 0.02 in
14:09 38.1 °F 29.5 °F 30.16 in NNW 1.0 mph 8.0 mph 71 % 0.02 in
14:14 38.5 °F 31.6 °F 30.16 in Calm   8.0 mph 76 % 0.02 in
14:19 38.7 °F 30.0 °F 30.17 in North 5.0 mph 6.0 mph 71 % 0.02 in
14:24 38.5 °F 30.6 °F 30.15 in NW 5.0 mph 6.0 mph 73 % 0.01 in
14:29 38.5 °F 30.9 °F 30.16 in North 1.0 mph 7.0 mph 74 % 0.01 in
14:34 38.8 °F 32.0 °F 30.17 in West 1.0 mph 8.0 mph 76 % 0.01 in
14:44 39.6 °F 32.4 °F 30.17 in NNE 2.0 mph 8.0 mph 75 % 0.01 in
14:49 40.5 °F 33.1 °F 30.15 in Calm   7.0 mph 75 % 0.01 in
14:54 41.2 °F 31.1 °F 30.16 in NNW 2.0 mph 5.0 mph 67 % 0.00 in
14:59 41.9 °F 30.2 °F 30.17 in Calm   6.0 mph 63 % 0.00 in
15:05 42.4 °F 30.4 °F 30.16 in NNW 1.0 mph 7.0 mph 62 % 0.00 in
15:10 43.0 °F 31.3 °F 30.16 in West 1.0 mph 7.0 mph 63 % 0.00 in
15:15 43.2 °F 31.1 °F 30.16 in West 2.0 mph 7.0 mph 62 % 0.00 in
15:25 43.2 °F 30.2 °F 30.14 in NNW 2.0 mph 6.0 mph 60 % 0.00 in
15:36 43.0 °F 30.4 °F 30.14 in Calm   6.0 mph 61 % 0.00 in
15:40 43.2 °F 30.2 °F 30.15 in NNW 2.0 mph 6.0 mph 60 % 0.00 in
16:06 43.2 °F 29.3 °F 30.15 in NW 2.0 mph 6.0 mph 58 % 0.00 in
16:11 43.2 °F 29.3 °F 30.15 in Calm   6.0 mph 58 % 0.00 in
16:16 43.2 °F 29.3 °F 30.14 in NNW 3.0 mph 6.0 mph 58 % 0.00 in
16:21 43.2 °F 29.3 °F 30.14 in NNW 3.0 mph 6.0 mph 58 % 0.00 in
16:26 43.2 °F 29.3 °F 30.15 in West 2.0 mph 7.0 mph 58 % 0.00 in
16:31 43.3 °F 29.1 °F 30.15 in WNW 4.0 mph 7.0 mph 57 % 0.00 in
16:41 43.2 °F 28.6 °F 30.14 in NW 1.0 mph 6.0 mph 56 % 0.00 in
16:46 43.0 °F 28.8 °F 30.14 in NW 1.0 mph 6.0 mph 57 % 0.00 in
16:51 42.8 °F 28.6 °F 30.14 in Calm   5.0 mph 57 % 0.00 in
16:56 42.6 °F 28.9 °F 30.14 in Calm   4.0 mph 58 % 0.00 in
17:01 42.3 °F 28.6 °F 30.15 in Calm   4.0 mph 58 % 0.00 in
17:07 41.9 °F 29.8 °F 30.15 in Calm   1.0 mph 62 % 0.00 in
17:12 41.5 °F 29.8 °F 30.15 in Calm   1.0 mph 63 % 0.00 in
17:17 41.0 °F 30.2 °F 30.15 in Calm   1.0 mph 65 % 0.00 in
17:22 40.6 °F 30.2 °F 30.16 in Calm   1.0 mph 66 % 0.00 in
17:27 40.3 °F 30.6 °F 30.16 in Calm   1.0 mph 68 % 0.00 in
17:32 39.7 °F 30.4 °F 30.17 in Calm     69 % 0.00 in
17:37 39.0 °F 29.7 °F 30.17 in Calm     69 % 0.00 in
17:42 38.5 °F 29.8 °F 30.17 in Calm     71 % 0.00 in
17:47 37.9 °F 30.0 °F 30.17 in Calm     73 % 0.00 in
17:52 37.9 °F 31.5 °F 30.17 in Calm     77 % 0.00 in
17:57 37.8 °F 31.5 °F 30.17 in Calm     78 % 0.00 in
18:07 37.0 °F 31.8 °F 30.17 in Calm   1.0 mph 81 % 0.00 in
18:12 36.7 °F 31.5 °F 30.17 in Calm   1.0 mph 81 % 0.00 in
18:32 35.1 °F 30.9 °F 30.17 in Calm     85 % 0.00 in
18:37 34.9 °F 30.9 °F 30.18 in Calm     85 % 0.00 in
18:42 34.7 °F 30.9 °F 30.18 in Calm     86 % 0.00 in
18:47 34.7 °F 31.3 °F 30.18 in Calm     87 % 0.00 in
18:52 34.9 °F 31.6 °F 30.19 in Calm     88 % 0.00 in
19:03 34.9 °F 31.5 °F 30.19 in Calm     87 % 0.00 in
19:08 34.5 °F 31.1 °F 30.19 in Calm     87 % 0.00 in
19:13 34.0 °F 30.6 °F 30.19 in Calm     87 % 0.00 in
19:18 33.6 °F 30.2 °F 30.19 in Calm     87 % 0.00 in
19:23 33.4 °F 30.2 °F 30.20 in Calm     88 % 0.00 in
19:28 33.6 °F 30.7 °F 30.19 in Calm     89 % 0.00 in
19:33 33.6 °F 30.7 °F 30.20 in Calm     89 % 0.00 in
19:38 33.4 °F 30.2 °F 30.20 in Calm     88 % 0.00 in
19:43 33.3 °F 30.0 °F 30.21 in Calm     88 % 0.00 in
19:53 32.5 °F 29.7 °F 30.21 in Calm     89 % 0.00 in
19:58 32.7 °F 30.2 °F 30.21 in Calm     90 % 0.00 in
20:08 32.9 °F 30.6 °F 30.21 in Calm     91 % 0.00 in
20:13 32.9 °F 30.6 °F 30.21 in Calm     91 % 0.00 in
20:23 32.5 °F 30.2 °F 30.22 in Calm     91 % 0.00 in
20:28 32.4 °F 30.0 °F 30.22 in Calm     91 % 0.00 in
20:33 32.4 °F 30.0 °F 30.22 in Calm     91 % 0.00 in
20:38 32.4 °F 30.4 °F 30.22 in Calm     92 % 0.00 in
20:43 32.4 °F 30.4 °F 30.22 in Calm     92 % 0.00 in
20:48 32.4 °F 30.4 °F 30.22 in Calm     92 % 0.00 in
20:53 32.4 °F 30.4 °F 30.22 in Calm     92 % 0.00 in
20:58 32.2 °F 30.2 °F 30.22 in Calm     92 % 0.00 in
21:03 32.2 °F 30.2 °F 30.22 in Calm     92 % 0.00 in
21:08 32.5 °F 30.7 °F 30.22 in Calm     93 % 0.00 in
21:15 32.7 °F 30.9 °F 30.22 in Calm     93 % 0.00 in
21:20 32.5 °F 30.7 °F 30.22 in Calm     93 % 0.00 in
21:25 32.4 °F 30.6 °F 30.22 in Calm     93 % 0.00 in
21:30 32.0 °F 30.2 °F 30.22 in Calm     93 % 0.00 in
21:32 31.8 °F 30.0 °F 30.22 in Calm     93 % 0.00 in
21:42 31.8 °F 30.0 °F 30.22 in Calm     93 % 0.00 in
21:46 31.6 °F 29.8 °F 30.22 in Calm     93 % 0.00 in
21:51 31.5 °F 29.7 °F 30.22 in Calm     93 % 0.00 in
22:01 30.9 °F 29.5 °F 30.22 in Calm     94 % 0.00 in
22:06 30.7 °F 29.3 °F 30.22 in Calm     94 % 0.00 in
22:16 30.4 °F 28.9 °F 30.21 in Calm     94 % 0.00 in
22:21 30.2 °F 28.8 °F 30.21 in Calm     94 % 0.00 in
22:26 30.2 °F 28.8 °F 30.21 in Calm     94 % 0.00 in
22:37 30.6 °F 29.1 °F 30.21 in Calm     94 % 0.00 in
22:42 30.9 °F 29.7 °F 30.21 in Calm     95 % 0.00 in
22:47 31.3 °F 30.0 °F 30.22 in Calm     95 % 0.00 in
22:52 31.5 °F 30.2 °F 30.22 in Calm     95 % 0.00 in
22:57 31.3 °F 30.0 °F 30.22 in Calm     95 % 0.00 in
23:02 31.3 °F 30.0 °F 30.22 in Calm     95 % 0.00 in
23:07 31.3 °F 30.0 °F 30.21 in Calm     95 % 0.00 in
23:12 31.1 °F 29.8 °F 30.21 in Calm     95 % 0.00 in
23:17 31.1 °F 29.8 °F 30.22 in Calm     95 % 0.00 in
23:22 31.3 °F 30.0 °F 30.21 in Calm     95 % 0.00 in
23:27 31.3 °F 30.0 °F 30.21 in Calm     95 % 0.00 in
23:37 30.9 °F 29.7 °F 30.21 in Calm     95 % 0.00 in
23:42 30.9 °F 29.7 °F 30.21 in Calm     95 % 0.00 in
23:47 30.9 °F 29.7 °F 30.21 in Calm     95 % 0.00 in
23:52 30.9 °F 29.7 °F 30.21 in Calm     95 % 0.00 in
23:57 30.9 °F 29.7 °F 30.21 in Calm     95 % 0.00 in
Spring, Texas: Villages of Bridgestone
Compliments of Weather Underground - 2.5 mb

Script developed by  Jim McMurry - jmcmurry@mwt.net Adapted for the template by  Wim van der Kuil - Leuven-Template.eu

You find our weather info also at:

UK Metoffice

WeatherCloud

Weather Underground

Mid-South Weather Network

AWEKAS

Citizen Weather Observer Program (CWOP)

HAMweather, WeatherForYou, PWS Weather

Equipment we use:

Weather-station
Davis Vantage Vue

Weather-program
Meteohub

Weather-server
Debian 7.9 x86 (Guest)

Provider
DreamHost

Davis Vantage Vue

Meteohub

Debian 7.9 x86 (Guest)

DreamHost